Flight Track Log - Related Links

Times and Time Zones

All times are in EDT time to prevent confusion due to time zone crossing. See the CHQ5098 flight status page for this flight to view local times or setup timezone preferences in your user account.

Time Position Orientation Groundspeed Altitude Reporting Facility
EDT Latitude Longitude Course Direction KTS MPH feet Rate Location/Type
Sat 06:55:29 PM 41.9167 -87.9167 352° North 173 199 2,400  Level Chicago TRACON
Sat 06:56:29 PM 41.9333 -87.8500 71° East 218 251 4,500 2,000 Climbing Chicago TRACON
Sat 06:57:00 PM 42.1986 -87.9743 340° North  Level FlightAware Approximate
Sat 06:57:23 PM 42.0000 -87.8333 11° North 271 312 6,200  Level Chicago TRACON
Sat 06:58:00 PM 42.2764 -87.9983 350° North  Level FlightAware Approximate
Sat 06:58:24 PM 42.0667 -87.8167 11° North 288 331 8,500  Level Chicago TRACON
Sat 06:59:00 PM 42.3548 -88.0191 340° North  Level FlightAware Approximate
Sat 07:00:00 PM 42.4305 -88.0528 352° North  Level FlightAware Approximate
Sat 07:00:08 PM 42.2025 -87.8183 359° North 301 346 12,100  Level Chicago Center
Sat 07:01:09 PM 42.2917 -87.8292 355° North 320 368 13,700 1,610 Climbing Chicago Center
Sat 07:02:11 PM 42.4011 -87.8428 355° North 344 396 15,400 1,122 Climbing Chicago Center
Sat 07:03:12 PM 42.5028 -87.8575 354° North 364 419 16,000 341 Climbing Chicago Center
Sat 07:04:14 PM 42.6094 -87.8708 355° North 383 441 16,100 48 Climbing Chicago Center
Sat 07:05:16 PM 42.7158 -87.8856 354° North 384 442 16,100  Level Chicago Center
Sat 07:06:17 PM 42.8214 -87.9011 354° North 382 440 16,100  Level Chicago Center
Sat 07:07:19 PM 42.9286 -87.9128 355° North 385 443 16,100  Level Chicago Center
Sat 07:08:20 PM 43.0519 -87.9308 354° North 384 442 16,100  Level Chicago Center
Sat 07:09:22 PM 43.1583 -87.9453 354° North 384 442 16,100  Level Chicago Center
Sat 07:10:23 PM 43.2644 -87.9606 354° North 386 444 16,100  Level Chicago Center
Sat 07:11:25 PM 43.3703 -87.9739 355° North 384 442 16,100  Level Chicago Center
Sat 07:12:26 PM 43.4756 -87.9886 354° North 382 440 16,100  Level Chicago Center
Sat 07:13:28 PM 43.5808 -88.0033 354° North 383 441 16,100 -309 Level Chicago Center
Sat 07:14:03 PM 43.6506 -88.0128 354° North 383 441 15,600 -1,188 Descending Minneapolis Center
Sat 07:15:04 PM 43.7583 -88.0269 355° North 388 447 14,200 -1,415 Descending Minneapolis Center
Sat 07:16:06 PM 43.8667 -88.0439 354° North 392 451 12,700 -1,512 Descending Minneapolis Center
Sat 07:17:07 PM 43.9747 -88.0578 355° North 390 449 11,100 -1,268 Descending Minneapolis Center
Sat 07:18:09 PM 44.0803 -88.0517 North 325 374 10,100 -1,244 Descending Minneapolis Center
Sat 07:19:22 PM 44.1600 -88.0456 North 293 337 8,300 -1,733 Descending Minneapolis Center
Sat 07:20:24 PM 44.2506 -88.0408 North 283 326 6,200 -1,935 Descending Minneapolis Center
Sat 07:21:26 PM 44.3256 -88.0411 360° North 274 315 4,300 -1,561 Descending Minneapolis Center
Sat 07:22:27 PM 44.3983 -88.0411 360° North 265 305 3,000 -639 Descending Minneapolis Center
Sat 07:23:28 PM 44.4775 -88.0433 359° North 249 287 3,000 -49 Level Minneapolis Center
Sat 07:24:30 PM 44.5436 -88.0464 358° North 242 278 2,900 -488 Descending Minneapolis Center
Sat 07:25:31 PM 44.5739 -88.0889 315° West 214 246 2,000 -885 Descending Minneapolis Center

Login

Don't have an account? Register now (free) for customized features, flight alerts, and more!